Flight Track Log - Related Links

Times and Time Zones

All times are in EST time to prevent confusion due to time zone crossing. See the BJS339 flight status page for this flight to view local times or setup timezone preferences in your user account.

Time Position Orientation Groundspeed Altitude Reporting Facility
EST Latitude Longitude Course Direction KTS MPH feet Rate Location/Type
Thu 12:28:22 PM 33.4333 -111.9833 90° East 197 227 1,900  Level Phoenix TRACON
Thu 12:28:59 PM 33.4333 -111.9500 90° East 197 227 3,300 3,033 Climbing Phoenix TRACON
Thu 12:29:53 PM 33.4333 -111.8833 90° East 232 267 6,500 3,650 Climbing Phoenix TRACON
Thu 12:30:59 PM 33.4167 -111.8000 103° East 274 315 10,600 3,043 Climbing Phoenix TRACON
Thu 12:32:13 PM 33.3783 -111.6950 114° Southeast 293 337 13,600 2,515 Climbing Albuquerque Center
Thu 12:33:15 PM 33.3431 -111.5914 112° Southeast 335 386 16,300 2,544 Climbing Albuquerque Center
Thu 12:34:18 PM 33.2964 -111.4589 113° Southeast 360 414 18,900 2,304 Climbing Albuquerque Center
Thu 12:35:20 PM 33.2608 -111.3372 109° East 385 443 21,100 2,081 Climbing Albuquerque Center
Thu 12:36:22 PM 33.2294 -111.2117 107° East 397 457 23,200 1,935 Climbing Albuquerque Center
Thu 12:37:24 PM 33.1942 -111.0831 108° East 408 470 25,100 1,548 Climbing Albuquerque Center
Thu 12:38:26 PM 33.1603 -110.9472 107° East 424 488 26,400 1,403 Climbing Albuquerque Center
Thu 12:39:28 PM 33.1233 -110.8083 108° East 437 503 28,000 1,597 Climbing Albuquerque Center
Thu 12:40:30 PM 33.0814 -110.6542 108° East 440 506 29,700 1,500 Climbing Albuquerque Center
Thu 12:41:32 PM 33.0442 -110.5161 108° East 439 505 31,100 1,258 Climbing Albuquerque Center
Thu 12:42:34 PM 33.0083 -110.3783 107° East 437 503 32,300 1,065 Climbing Albuquerque Center
Thu 12:43:36 PM 32.9931 -110.2053 96° East 440 506 33,300 823 Climbing Albuquerque Center
Thu 12:44:38 PM 32.9839 -110.0600 94° East 443 510 34,000 1,113 Climbing Albuquerque Center
Thu 12:45:40 PM 32.9769 -109.9156 93° East 440 506 35,600 919 Climbing Albuquerque Center
Thu 12:46:42 PM 32.9686 -109.7725 94° East 435 501 35,900 435 Climbing Albuquerque Center
Thu 12:47:44 PM 32.9617 -109.6269 93° East 440 506 36,500 532 Climbing Albuquerque Center
Thu 12:48:46 PM 32.9531 -109.4794 94° East 446 513 37,000 528 Climbing Albuquerque Center
Thu 12:49:49 PM 32.9431 -109.3000 94° East 454 522 37,600 768 Climbing Albuquerque Center
Thu 12:50:51 PM 32.9239 -109.1550 99° East 444 511 38,600 629 Climbing Albuquerque Center
Thu 12:51:53 PM 32.8942 -109.0053 103° East 444 511 38,900 194 Climbing Albuquerque Center
Thu 12:52:55 PM 32.8453 -108.8689 113° Southeast 449 517 39,000 48 Climbing Albuquerque Center
Thu 12:53:57 PM 32.7864 -108.7189 115° Southeast 459 528 39,000  Level Albuquerque Center
Thu 12:54:59 PM 32.7333 -108.5806 114° Southeast 463 533 39,000  Level Albuquerque Center
Thu 12:56:01 PM 32.6789 -108.4411 115° Southeast 466 536 39,000  Level Albuquerque Center
Thu 12:57:03 PM 32.6233 -108.3003 115° Southeast 470 541 39,000  Level Albuquerque Center
Thu 12:58:05 PM 32.5678 -108.1586 115° Southeast 473 544 39,000  Level Albuquerque Center
Thu 12:59:07 PM 32.5014 -107.9889 115° Southeast 475 547 39,000  Level Albuquerque Center
Thu 01:00:09 PM 32.4464 -107.8483 115° Southeast 473 544 39,000  Level Albuquerque Center
Thu 01:01:11 PM 32.3958 -107.7189 115° Southeast 475 547 39,000  Level Albuquerque Center
Thu 01:02:13 PM 32.3294 -107.5519 115° Southeast 474 545 39,000  Level Albuquerque Center
Thu 01:03:15 PM 32.2789 -107.4261 115° Southeast 472 543 39,000  Level Albuquerque Center
Thu 01:04:17 PM 32.2222 -107.2864 116° Southeast 472 543 39,000  Level Albuquerque Center
Thu 01:05:20 PM 32.1644 -107.1369 115° Southeast 473 544 39,000  Level Albuquerque Center
Thu 01:06:22 PM 32.0972 -106.9700 115° Southeast 474 545 39,000  Level Albuquerque Center
Thu 01:07:24 PM 32.0403 -106.8303 116° Southeast 475 547 39,000  Level Albuquerque Center
Thu 01:08:26 PM 31.9831 -106.6894 116° Southeast 478 550 39,000  Level Albuquerque Center
Thu 01:09:28 PM 31.9250 -106.5506 116° Southeast 478 550 39,000  Level Albuquerque Center
Thu 01:10:30 PM 31.8633 -106.3981 115° Southeast 478 550 39,000  Level Albuquerque Center
Thu 01:11:32 PM 31.8097 -106.2581 114° Southeast 473 544 39,000  Level Albuquerque Center
Thu 01:12:34 PM 31.7731 -106.1117 106° East 468 539 39,000  Level Albuquerque Center
Thu 01:13:36 PM 31.7361 -105.9647 106° East 467 537 39,000  Level Albuquerque Center
Thu 01:14:38 PM 31.6906 -105.7889 107° East 469 540 39,000  Level Albuquerque Center
Thu 01:15:40 PM 31.6542 -105.6414 106° East 470 541 39,000  Level Albuquerque Center
Thu 01:16:42 PM 31.6164 -105.4947 107° East 469 540 39,000  Level Albuquerque Center
Thu 01:17:44 PM 31.5794 -105.3436 106° East 468 539 39,000  Level Albuquerque Center
Thu 01:18:46 PM 31.5431 -105.2011 107° East 469 540 39,000  Level Albuquerque Center
Thu 01:19:48 PM 31.5053 -105.0531 107° East 470 541 39,000  Level Albuquerque Center
Thu 01:20:50 PM 31.4678 -104.9078 107° East 468 539 39,000  Level Albuquerque Center
Thu 01:21:52 PM 31.4225 -104.7356 107° East 461 531 39,000  Level Albuquerque Center
Thu 01:22:55 PM 31.3864 -104.5939 107° East 456 525 39,000  Level Albuquerque Center
Thu 01:23:57 PM 31.3497 -104.4514 107° East 455 524 39,000  Level Albuquerque Center
Thu 01:24:59 PM 31.3119 -104.3075 107° East 459 528 39,000  Level Albuquerque Center
Thu 01:26:01 PM 31.2739 -104.1636 107° East 461 531 39,000  Level Albuquerque Center
Thu 01:27:03 PM 31.2347 -104.0183 107° East 466 536 39,000  Level Albuquerque Center
Thu 01:28:05 PM 31.1958 -103.8733 107° East 467 537 39,000  Level Albuquerque Center
Thu 01:29:07 PM 31.1503 -103.7081 108° East 464 534 39,000  Level Albuquerque Center
Thu 01:30:09 PM 31.1103 -103.5639 108° East 468 539 39,000  Level Albuquerque Center
Thu 01:31:11 PM 31.0697 -103.4206 108° East 467 537 39,000  Level Albuquerque Center
Thu 01:32:13 PM 31.0233 -103.2481 107° East 467 537 39,000  Level Albuquerque Center
Thu 01:33:15 PM 30.9678 -103.1178 116° Southeast 452 520 39,000  Level Albuquerque Center
Thu 01:34:17 PM 30.8889 -103.0000 128° Southeast 458 527 39,000  Level Albuquerque Center
Thu 01:35:19 PM 30.8111 -102.8850 128° Southeast 458 527 39,000  Level Albuquerque Center
Thu 01:36:21 PM 30.7328 -102.7661 127° Southeast 461 531 39,000  Level Albuquerque Center
Thu 01:37:23 PM 30.6375 -102.6244 128° Southeast 465 535 39,000  Level Albuquerque Center
Thu 01:38:19 PM 30.5758 -102.5319 128° Southeast 463 533 39,000  Level Houston Center
Thu 01:39:21 PM 30.4964 -102.4144 128° Southeast 464 534 39,000  Level Houston Center
Thu 01:40:23 PM 30.4019 -102.2753 128° Southeast 462 532 39,000  Level Houston Center
Thu 01:41:25 PM 30.3222 -102.1575 128° Southeast 466 536 39,000  Level Houston Center
Thu 01:42:27 PM 30.2419 -102.0400 128° Southeast 467 537 39,000  Level Houston Center
Thu 01:43:30 PM 30.1622 -101.9233 128° Southeast 465 535 39,000  Level Houston Center
Thu 01:44:32 PM 30.0786 -101.8031 129° Southeast 469 540 39,000  Level Houston Center
Thu 01:45:34 PM 29.9978 -101.6861 129° Southeast 469 540 39,000  Level Houston Center
Thu 01:46:36 PM 29.8997 -101.5458 129° Southeast 468 539 39,000  Level Houston Center
Thu 01:47:38 PM 29.8208 -101.4292 128° Southeast 465 535 39,000  Level Houston Center
Thu 01:48:40 PM 29.7397 -101.3131 129° Southeast 466 536 39,000  Level Houston Center
Thu 01:49:42 PM 29.6589 -101.1994 129° Southeast 463 533 39,000  Level Houston Center
Thu 01:50:44 PM 29.5781 -101.0836 129° Southeast 466 536 39,000  Level Houston Center
Thu 01:51:47 PM 29.4811 -100.9447 129° Southeast 468 539 39,000  Level Houston Center
Thu 01:52:49 PM 29.4000 -100.8303 129° Southeast 467 537 39,000  Level Houston Center
Thu 01:53:51 PM 29.3072 -100.7322 137° Southeast 460 529 39,000  Level Houston Center
Thu 01:54:53 PM 29.2039 -100.6575 148° Southeast 444 511 39,000  Level Houston Center
Thu 01:55:55 PM 29.1000 -100.5825 148° Southeast 443 510 39,000  Level Houston Center
Thu 01:56:57 PM 28.9761 -100.4922 147° Southeast 440 506 39,000  Level Houston Center
Thu 01:57:59 PM 28.8747 -100.4161 147° Southeast 438 504 39,000  Level Houston Center
Thu 01:59:01 PM 28.7714 -100.3417 148° Southeast 439 505 39,000  Level Houston Center
Thu 02:00:04 PM 28.6689 -100.2689 148° Southeast 438 504 39,000  Level Houston Center
Thu 02:01:06 PM 28.5536 -100.1842 147° Southeast 442 509 39,000  Level Houston Center
Thu 02:02:08 PM 28.4506 -100.1100 148° Southeast 440 506 39,000  Level Houston Center
Thu 02:03:10 PM 28.3469 -100.0361 148° Southeast 438 504 39,000  Level Houston Center
Thu 02:04:12 PM 28.2439 -99.9633 148° Southeast 438 504 39,000  Level Houston Center
Thu 02:05:14 PM 28.1417 -99.8894 147° Southeast 437 503 39,000 -48 Level Houston Center
Thu 02:06:16 PM 28.0206 -99.8011 147° Southeast 434 499 38,900  Descending Houston Center
Thu 02:07:19 PM 27.9189 -99.7300 148° Southeast 430 495 39,000 48 Climbing Houston Center
Thu 02:08:21 PM 27.8169 -99.6572 148° Southeast 432 497 39,000  Level Houston Center
Thu 02:09:23 PM 27.7131 -99.5858 149° Southeast 439 505 39,000  Level Houston Center
Thu 02:10:25 PM 27.6094 -99.5114 148° Southeast 442 509 39,000  Level Houston Center
Thu 02:11:27 PM 27.4856 -99.4244 148° Southeast 440 506 39,000  Level Houston Center
Thu 02:12:29 PM 27.3953 -99.3278 136° Southeast 457 526 39,000  Level Houston Center
Thu 02:13:31 PM 27.3081 -99.2278 134° Southeast 455 524 39,000  Level Houston Center
Thu 02:14:33 PM 27.2211 -99.1294 135° Southeast 451 519 39,000  Level Houston Center
Thu 02:15:36 PM 27.1186 -99.0128 135° Southeast 444 511 39,000  Level Houston Center
Thu 02:16:38 PM 27.0333 -98.9164 135° Southeast 440 506 39,000  Level Houston Center
Thu 02:17:40 PM 26.9467 -98.8186 135° Southeast 442 509 39,000  Level Houston Center
Thu 02:18:42 PM 26.8586 -98.7211 135° Southeast 446 513 39,000  Level Houston Center
Thu 02:19:44 PM 26.7714 -98.6236 135° Southeast 446 513 39,000  Level Houston Center
Thu 02:20:46 PM 26.6683 -98.5069 135° Southeast 451 519 39,000  Level Houston Center
Thu 02:21:48 PM 26.5742 -98.4050 136° Southeast 438 504 39,000  Level Houston Center
Thu 02:22:51 PM 26.4889 -98.3097 135° Southeast 434 499 39,000  Level Houston Center
Thu 02:23:53 PM 26.3947 -98.2056 135° Southeast 443 510 39,000  Level Houston Center
Thu 02:24:55 PM 26.3069 -98.1092 135° Southeast 444 511 39,000  Level Houston Center
Thu 02:25:57 PM 26.2117 -98.0056 136° Southeast 445 512 39,000  Level Houston Center
Thu 02:26:59 PM 26.1239 -97.9103 136° Southeast 443 510 39,000  Level Houston Center
Thu 02:28:01 PM 26.0308 -97.8108 136° Southeast 435 501 39,000  Level Houston Center
Thu 02:29:03 PM 25.9481 -97.7178 135° Southeast 427 491 39,000  Level Houston Center
Thu 02:30:05 PM 25.8564 -97.6175 135° Southeast 431 496 39,000  Level Houston Center
Thu 02:31:08 PM 25.7697 -97.5217 135° Southeast 439 505 39,000  Level Houston Center
Thu 02:33:00 PM 25.6492 -97.3064 122° Southeast  Level FlightAware Approximate
Thu 02:40:00 PM 25.2089 -96.4936 120° Southeast  Level FlightAware Approximate
Thu 02:41:00 PM 25.1463 -96.3774 121° Southeast  Level FlightAware Approximate
Thu 02:42:00 PM 25.0836 -96.2615 121° Southeast  Level FlightAware Approximate
Thu 02:43:00 PM 25.0208 -96.1456 121° Southeast  Level FlightAware Approximate
Thu 02:44:00 PM 24.9580 -96.0299 121° Southeast  Level FlightAware Approximate
Thu 02:45:00 PM 24.8950 -95.9143 121° Southeast  Level FlightAware Approximate
Thu 02:46:00 PM 24.8320 -95.7988 121° Southeast  Level FlightAware Approximate
Thu 02:47:00 PM 24.7689 -95.6834 121° Southeast  Level FlightAware Approximate
Thu 02:48:00 PM 24.7057 -95.5681 121° Southeast  Level FlightAware Approximate
Thu 02:49:00 PM 24.6423 -95.4529 121° Southeast  Level FlightAware Approximate
Thu 02:50:00 PM 24.5790 -95.3379 121° Southeast  Level FlightAware Approximate
Thu 02:51:00 PM 24.5155 -95.2230 121° Southeast  Level FlightAware Approximate
Thu 02:52:00 PM 24.4519 -95.1082 121° Southeast  Level FlightAware Approximate
Thu 02:53:00 PM 24.3882 -94.9935 121° Southeast  Level FlightAware Approximate
Thu 02:54:00 PM 24.3245 -94.8790 121° Southeast  Level FlightAware Approximate
Thu 02:55:00 PM 24.2607 -94.7645 121° Southeast  Level FlightAware Approximate
Thu 02:56:00 PM 24.1968 -94.6502 121° Southeast  Level FlightAware Approximate
Thu 02:57:00 PM 24.1373 -94.5334 113° Southeast  Level FlightAware Approximate
Thu 02:58:00 PM 24.0898 -94.4099 113° Southeast  Level FlightAware Approximate
Thu 02:59:00 PM 24.0423 -94.2865 113° Southeast  Level FlightAware Approximate
Thu 03:00:00 PM 23.9947 -94.1632 113° Southeast  Level FlightAware Approximate
Thu 03:01:00 PM 23.9470 -94.0399 113° Southeast  Level FlightAware Approximate
Thu 03:02:00 PM 23.8992 -93.9168 113° Southeast  Level FlightAware Approximate
Thu 03:03:00 PM 23.8517 -93.7935 112° Southeast  Level FlightAware Approximate
Thu 03:04:00 PM 23.8052 -93.6699 112° Southeast  Level FlightAware Approximate
Thu 03:05:00 PM 23.7586 -93.5463 112° Southeast  Level FlightAware Approximate
Thu 03:06:00 PM 23.7118 -93.4229 112° Southeast  Level FlightAware Approximate
Thu 03:07:00 PM 23.6650 -93.2995 112° Southeast  Level FlightAware Approximate
Thu 03:08:00 PM 23.6181 -93.1762 113° Southeast  Level FlightAware Approximate
Thu 03:09:00 PM 23.5711 -93.0530 113° Southeast  Level FlightAware Approximate
Thu 03:10:00 PM 23.5239 -92.9299 113° Southeast  Level FlightAware Approximate
Thu 03:11:00 PM 23.4767 -92.8069 113° Southeast  Level FlightAware Approximate
Thu 03:12:00 PM 23.4294 -92.6840 113° Southeast  Level FlightAware Approximate
Thu 03:13:00 PM 23.3820 -92.5611 113° Southeast  Level FlightAware Approximate
Thu 03:14:00 PM 23.3345 -92.4384 113° Southeast  Level FlightAware Approximate
Thu 03:15:00 PM 23.2869 -92.3157 113° Southeast  Level FlightAware Approximate
Thu 03:16:00 PM 23.2392 -92.1931 113° Southeast  Level FlightAware Approximate
Thu 03:17:00 PM 23.1914 -92.0706 113° Southeast  Level FlightAware Approximate
Thu 03:18:00 PM 23.1435 -91.9482 113° Southeast  Level FlightAware Approximate
Thu 03:19:00 PM 23.0955 -91.8259 113° Southeast  Level FlightAware Approximate
Thu 03:20:00 PM 23.0475 -91.7037 113° Southeast  Level FlightAware Approximate
Thu 03:21:00 PM 22.9993 -91.5816 113° Southeast  Level FlightAware Approximate
Thu 03:22:00 PM 22.9506 -91.4597 113° Southeast  Level FlightAware Approximate
Thu 03:23:00 PM 22.9018 -91.3379 113° Southeast  Level FlightAware Approximate
Thu 03:24:00 PM 22.8529 -91.2163 114° Southeast  Level FlightAware Approximate
Thu 03:25:00 PM 22.8039 -91.0947 114° Southeast  Level FlightAware Approximate
Thu 03:26:00 PM 22.7548 -90.9732 114° Southeast  Level FlightAware Approximate
Thu 03:27:00 PM 22.7056 -90.8518 114° Southeast  Level FlightAware Approximate
Thu 03:28:00 PM 22.6563 -90.7305 114° Southeast  Level FlightAware Approximate
Thu 03:29:00 PM 22.6068 -90.6094 114° Southeast  Level FlightAware Approximate
Thu 03:30:00 PM 22.5566 -90.4886 114° Southeast  Level FlightAware Approximate
Thu 03:31:00 PM 22.5064 -90.3679 114° Southeast  Level FlightAware Approximate
Thu 03:32:00 PM 22.4561 -90.2472 114° Southeast  Level FlightAware Approximate
Thu 03:33:00 PM 22.4057 -90.1267 114° Southeast  Level FlightAware Approximate
Thu 03:34:00 PM 22.3552 -90.0062 114° Southeast  Level FlightAware Approximate
Thu 03:35:00 PM 22.3046 -89.8858 114° Southeast  Level FlightAware Approximate
Thu 03:36:00 PM 22.2540 -89.7655 114° Southeast  Level FlightAware Approximate
Thu 03:37:00 PM 22.2033 -89.6453 114° Southeast  Level FlightAware Approximate
Thu 03:38:00 PM 22.1525 -89.5252 114° Southeast  Level FlightAware Approximate
Thu 03:39:00 PM 22.1017 -89.4051 115° Southeast  Level FlightAware Approximate
Thu 03:40:00 PM 22.0508 -89.2851 115° Southeast  Level FlightAware Approximate
Thu 03:41:00 PM 22.0087 -89.1643 114° Southeast  Level FlightAware Approximate
Thu 03:42:00 PM 21.9586 -89.0439 114° Southeast  Level FlightAware Approximate
Thu 03:43:00 PM 21.9094 -88.9233 113° Southeast  Level FlightAware Approximate
Thu 03:44:00 PM 21.8610 -88.8022 113° Southeast  Level FlightAware Approximate
Thu 03:45:00 PM 21.8125 -88.6813 113° Southeast  Level FlightAware Approximate
Thu 03:46:00 PM 21.7598 -88.5627 110° East  Level FlightAware Approximate
Thu 03:47:00 PM 21.7087 -88.4455 112° Southeast  Level FlightAware Approximate
Thu 03:48:00 PM 21.6622 -88.3238 117° Southeast  Level FlightAware Approximate
Thu 03:49:00 PM 21.6074 -88.2062 117° Southeast  Level FlightAware Approximate
Thu 03:50:00 PM 21.5525 -88.0887 117° Southeast  Level FlightAware Approximate
Thu 03:51:00 PM 21.5024 -87.9687 114° Southeast  Level FlightAware Approximate
Thu 03:52:00 PM 21.4524 -87.8488 114° Southeast  Level FlightAware Approximate
Thu 03:53:00 PM 21.4024 -87.7289 114° Southeast  Level FlightAware Approximate
Thu 03:54:00 PM 21.3507 -87.6100 113° Southeast  Level FlightAware Approximate
Thu 03:55:00 PM 21.3024 -87.4893 113° Southeast  Level FlightAware Approximate
Thu 03:56:00 PM 21.2451 -87.3734 118° Southeast  Level FlightAware Approximate
Thu 03:57:00 PM 21.1894 -87.2568 113° Southeast  Level FlightAware Approximate
Thu 03:58:00 PM 21.1412 -87.1362 113° Southeast  Level FlightAware Approximate
Thu 03:59:00 PM 21.0940 -87.0183 113° Southeast  Level FlightAware Approximate
Thu 04:00:00 PM 21.0380 -86.9023 123° Southeast  Level FlightAware Approximate
Thu 04:01:00 PM 21.0365 -86.8771 123° Southeast  Level Estimated
Thu 04:02:00 PM 21.0365 -86.8771 123° Southeast  Level Estimated
Thu 04:03:00 PM 21.0365 -86.8771 123° Southeast  Level Estimated
Thu 04:04:00 PM 21.0365 -86.8771 123° Southeast  Level Estimated
Thu 04:05:00 PM 21.0365 -86.8771 123° Southeast  Level Estimated
Thu 04:06:00 PM 21.0365 -86.8771 123° Southeast  Level Estimated
Thu 04:07:00 PM 21.0365 -86.8771 123° Southeast  Level Estimated
Thu 04:08:00 PM 21.0365 -86.8771 123° Southeast  Level Estimated
Thu 04:09:00 PM 21.0365 -86.8771 123° Southeast  Level Estimated
Thu 04:10:00 PM 21.0365 -86.8771 123° Southeast  Level Estimated
Thu 04:11:00 PM 21.0365 -86.8771 123° Southeast  Level Estimated
Thu 04:12:00 PM 21.0365 -86.8771 123° Southeast  Level Estimated
Thu 04:13:00 PM 21.0365 -86.8771 123° Southeast  Level Estimated
Thu 04:14:00 PM 21.0365 -86.8771 123° Southeast  Level Estimated
Thu 04:15:00 PM 21.0365 -86.8771 123° Southeast  Level Estimated
Thu 04:16:00 PM 21.0365 -86.8771 123° Southeast  Level Estimated
Thu 04:17:00 PM 21.0365 -86.8771 123° Southeast  Level Estimated

Login

Don't have an account? Register now (free) for customized features, flight alerts, and more!